Time;durP1;ratioP1;P1;durP2;ratioP2;P2;SDS_P1;SDS_P2;PMS_P1;PMS_P2;Temp;Humidity;BMP_temperature;BMP_pressure;BME280_temperature;BME280_humidity;BME280_pressure;Samples;Min_cycle;Max_cycle;Signal;HPM_P1;HPM_P2
2021/10/18 00:00:20;;;;;;;12.32;10.40;;;;;;;;;;2103366;28;20202;-59
2021/10/18 00:01:22;;;;;;;16.88;10.10;;;;;;;;;;2106253;28;20171;-57
2021/10/18 00:02:22;;;;;;;11.40;9.52;;;;;;;;;;2105681;28;20265;-59
2021/10/18 00:03:23;;;;;;;13.30;10.25;;;;;;;;;;2103236;28;20249;-59
2021/10/18 00:04:23;;;;;;;15.15;10.57;;;;;;;;;;2101632;28;20200;-59
2021/10/18 00:05:23;;;;;;;11.07;9.82;;;;;;;;;;2103641;28;20194;-58
2021/10/18 00:06:24;;;;;;;10.82;9.77;;;;;;;;;;2102581;28;20163;-62
2021/10/18 00:07:24;;;;;;;10.98;9.82;;;;;;;;;;2095575;28;20206;-59
2021/10/18 00:08:24;;;;;;;12.15;10.25;;;;;;;;;;2100225;23;20221;-61
2021/10/18 00:09:24;;;;;;;11.70;9.25;;;;;;;;;;2079142;28;20258;-60
2021/10/18 00:10:24;;;;;;;10.55;9.25;;;;;;;;;;2084725;28;20234;-57
2021/10/18 00:11:25;;;;;;;11.18;10.07;;;;;;;;;;2089240;28;20180;-58
2021/10/18 00:12:26;;;;;;;11.35;10.25;;;;;;;;;;2086267;28;20180;-64
2021/10/18 00:13:28;;;;;;;12.07;9.27;;;;;;;;;;2082081;28;20181;-62
2021/10/18 00:14:28;;;;;;;13.05;9.70;;;;;;;;;;2094100;28;20171;-59
2021/10/18 00:15:28;;;;;;;11.38;10.27;;;;;;;;;;2089199;28;20189;-57
2021/10/18 00:16:29;;;;;;;15.68;9.98;;;;;;;;;;2084577;28;20214;-61
2021/10/18 00:17:29;;;;;;;12.05;10.00;;;;;;;;;;2078560;28;20187;-63
2021/10/18 00:18:29;;;;;;;12.52;9.55;;;;;;;;;;2078444;28;20208;-59
2021/10/18 00:19:29;;;;;;;12.98;10.60;;;;;;;;;;2081214;28;20208;-63
2021/10/18 00:20:30;;;;;;;16.23;10.50;;;;;;;;;;2085190;28;20182;-61
2021/10/18 00:21:30;;;;;;;14.10;9.20;;;;;;;;;;2087062;28;20218;-62
2021/10/18 00:22:31;;;;;;;11.88;10.00;;;;;;;;;;2087948;28;20261;-62
2021/10/18 00:23:31;;;;;;;14.15;10.27;;;;;;;;;;2092283;28;20167;-61
2021/10/18 00:24:31;;;;;;;14.25;9.73;;;;;;;;;;2088851;28;20195;-62
2021/10/18 00:25:31;;;;;;;14.88;9.95;;;;;;;;;;2088422;28;20207;-61
2021/10/18 00:26:32;;;;;;;11.80;8.73;;;;;;;;;;2094958;28;20190;-61
2021/10/18 00:27:32;;;;;;;12.07;9.38;;;;;;;;;;2081671;28;20580;-63
2021/10/18 00:28:33;;;;;;;12.40;9.07;;;;;;;;;;2086589;28;20234;-63
2021/10/18 00:29:33;;;;;;;13.10;9.60;;;;;;;;;;2098012;28;20172;-64
2021/10/18 00:30:33;;;;;;;14.10;9.88;;;;;;;;;;2081986;28;20183;-63
2021/10/18 00:31:34;;;;;;;15.07;9.80;;;;;;;;;;2088171;28;20164;-63
2021/10/18 00:32:34;;;;;;;15.02;9.00;;;;;;;;;;2097686;28;20193;-64
2021/10/18 00:33:34;;;;;;;13.35;9.15;;;;;;;;;;2083438;28;20230;-57
2021/10/18 00:34:34;;;;;;;11.98;9.27;;;;;;;;;;2080599;28;20545;-57
2021/10/18 00:35:35;;;;;;;11.35;8.70;;;;;;;;;;2089431;28;20171;-61
2021/10/18 00:36:35;;;;;;;11.23;9.13;;;;;;;;;;2088674;28;20194;-62
2021/10/18 00:37:36;;;;;;;15.38;8.80;;;;;;;;;;2090037;28;20171;-59
2021/10/18 00:38:36;;;;;;;11.45;9.93;;;;;;;;;;2089585;28;20741;-56
2021/10/18 00:39:36;;;;;;;14.95;10.38;;;;;;;;;;2088674;28;20184;-59
2021/10/18 00:40:36;;;;;;;15.38;9.43;;;;;;;;;;2087142;28;20243;-61
2021/10/18 00:41:37;;;;;;;10.25;9.10;;;;;;;;;;2082071;28;20224;-62
2021/10/18 00:42:37;;;;;;;15.10;9.63;;;;;;;;;;2094284;28;20171;-58
2021/10/18 00:43:42;;;;;;;16.00;9.15;;;;;;;;;;2079373;28;20611;-61
2021/10/18 00:44:43;;;;;;;10.02;8.85;;;;;;;;;;2086037;28;20171;-60
2021/10/18 00:45:43;;;;;;;11.95;9.07;;;;;;;;;;2094389;28;20866;-62
2021/10/18 00:46:43;;;;;;;16.45;9.65;;;;;;;;;;2094301;28;20207;-62
2021/10/18 00:47:44;;;;;;;13.63;10.27;;;;;;;;;;2096654;28;20202;-62
2021/10/18 00:48:44;;;;;;;12.57;9.00;;;;;;;;;;2088314;28;20225;-62
2021/10/18 00:49:44;;;;;;;9.95;8.95;;;;;;;;;;2089051;28;20177;-61
2021/10/18 00:50:45;;;;;;;9.68;8.55;;;;;;;;;;2081284;28;20735;-63
2021/10/18 00:51:45;;;;;;;10.15;8.35;;;;;;;;;;2085474;28;20208;-60
2021/10/18 00:52:45;;;;;;;12.10;9.00;;;;;;;;;;2099678;28;20236;-64
2021/10/18 00:53:46;;;;;;;11.95;9.23;;;;;;;;;;2091958;28;20258;-62
2021/10/18 00:54:48;;;;;;;9.65;8.15;;;;;;;;;;2100633;28;20547;-63
2021/10/18 00:55:48;;;;;;;11.75;9.85;;;;;;;;;;2083024;28;20184;-62
2021/10/18 00:56:49;;;;;;;10.48;9.35;;;;;;;;;;2091744;28;20193;-60
2021/10/18 00:57:50;;;;;;;17.88;10.07;;;;;;;;;;2091609;28;20202;-56
2021/10/18 00:58:51;;;;;;;11.48;9.10;;;;;;;;;;2084264;28;20327;-60
2021/10/18 00:59:52;;;;;;;12.45;9.23;;;;;;;;;;2091418;28;20184;-61
2021/10/18 01:00:52;;;;;;;11.57;8.85;;;;;;;;;;2096891;28;20651;-52
2021/10/18 01:01:53;;;;;;;12.15;8.80;;;;;;;;;;2088611;28;20605;-62
2021/10/18 01:02:53;;;;;;;9.82;8.57;;;;;;;;;;2081249;28;20171;-59
2021/10/18 01:03:55;;;;;;;9.88;8.60;;;;;;;;;;2089843;28;20215;-62
2021/10/18 01:04:55;;;;;;;14.30;8.82;;;;;;;;;;2093059;28;20194;-59
2021/10/18 01:05:55;;;;;;;10.27;8.70;;;;;;;;;;2089049;28;20273;-61
2021/10/18 01:06:56;;;;;;;10.43;9.27;;;;;;;;;;2092175;28;20180;-61
2021/10/18 01:07:57;;;;;;;9.48;8.48;;;;;;;;;;2084750;28;20267;-60
2021/10/18 01:08:57;;;;;;;11.60;8.82;;;;;;;;;;2095868;28;20178;-60
2021/10/18 01:09:57;;;;;;;12.63;8.88;;;;;;;;;;2088162;28;20326;-64
2021/10/18 01:10:58;;;;;;;9.93;8.48;;;;;;;;;;2074444;28;20173;-62
2021/10/18 01:11:58;;;;;;;9.30;8.30;;;;;;;;;;2084432;28;20167;-60
2021/10/18 01:12:58;;;;;;;9.35;8.13;;;;;;;;;;2082904;28;20172;-64
2021/10/18 01:13:59;;;;;;;10.15;9.15;;;;;;;;;;2093294;28;20975;-60
2021/10/18 01:14:59;;;;;;;10.05;8.45;;;;;;;;;;2088957;28;20180;-60
2021/10/18 01:16:02;;;;;;;10.15;8.70;;;;;;;;;;2090095;28;20254;-62
2021/10/18 01:17:02;;;;;;;8.70;7.78;;;;;;;;;;2092156;28;20183;-61
2021/10/18 01:18:03;;;;;;;9.88;8.90;;;;;;;;;;2089172;28;20190;-61
2021/10/18 01:19:14;;;;;;;9.38;8.48;;;;;;;;;;2089586;28;20179;-62
2021/10/18 01:20:25;;;;;;;9.57;8.35;;;;;;;;;;2093007;28;20160;-60
2021/10/18 01:21:26;;;;;;;11.32;8.98;;;;;;;;;;2091940;28;20655;-61
2021/10/18 01:22:28;;;;;;;9.10;8.27;;;;;;;;;;2094994;28;20179;-58
2021/10/18 01:23:28;;;;;;;9.85;8.85;;;;;;;;;;2092505;28;20673;-63
2021/10/18 01:24:29;;;;;;;8.95;7.57;;;;;;;;;;2091985;28;20172;-62
2021/10/18 01:25:29;;;;;;;14.32;7.88;;;;;;;;;;2093591;28;20550;-59
2021/10/18 01:26:30;;;;;;;9.30;8.10;;;;;;;;;;2093303;28;20275;-60
2021/10/18 01:27:30;;;;;;;9.43;8.32;;;;;;;;;;2092831;28;20178;-61
2021/10/18 01:28:30;;;;;;;9.70;8.70;;;;;;;;;;2083727;28;20206;-61
2021/10/18 01:29:31;;;;;;;10.45;8.35;;;;;;;;;;2080236;28;20563;-63
2021/10/18 01:30:32;;;;;;;9.25;7.28;;;;;;;;;;2088180;28;20258;-62
2021/10/18 01:31:33;;;;;;;8.70;7.90;;;;;;;;;;2087454;28;20194;-62
2021/10/18 01:32:33;;;;;;;10.63;9.32;;;;;;;;;;2095451;28;20220;-59
2021/10/18 01:33:33;;;;;;;9.27;8.43;;;;;;;;;;2085304;28;20235;-61
2021/10/18 01:34:34;;;;;;;11.98;8.80;;;;;;;;;;2093232;28;20179;-62
2021/10/18 01:35:34;;;;;;;10.38;7.68;;;;;;;;;;2067624;28;20256;-62
2021/10/18 01:36:34;;;;;;;8.27;7.47;;;;;;;;;;2074705;28;20180;-63
2021/10/18 01:37:35;;;;;;;8.57;7.55;;;;;;;;;;2086308;28;20199;-64
2021/10/18 01:38:35;;;;;;;8.85;7.68;;;;;;;;;;2088865;28;20267;-57
2021/10/18 01:39:35;;;;;;;10.00;8.60;;;;;;;;;;2088748;28;20314;-61
2021/10/18 01:40:36;;;;;;;13.93;8.25;;;;;;;;;;2095738;28;20297;-57
2021/10/18 01:41:36;;;;;;;8.75;7.95;;;;;;;;;;2091913;28;20186;-60
2021/10/18 01:42:37;;;;;;;8.93;8.02;;;;;;;;;;2096801;28;20178;-56
2021/10/18 01:43:37;;;;;;;8.73;7.93;;;;;;;;;;2089071;28;20225;-64
2021/10/18 01:44:37;;;;;;;8.80;8.00;;;;;;;;;;2083150;28;20187;-63
2021/10/18 01:45:37;;;;;;;9.50;7.93;;;;;;;;;;2080647;28;20192;-62
2021/10/18 01:46:38;;;;;;;9.60;7.88;;;;;;;;;;2081451;28;20172;-64
2021/10/18 01:47:38;;;;;;;8.90;8.02;;;;;;;;;;2081337;28;20215;-62
2021/10/18 01:48:39;;;;;;;9.05;7.90;;;;;;;;;;2081143;28;20680;-64
2021/10/18 01:49:39;;;;;;;8.98;8.18;;;;;;;;;;2073056;28;20677;-63
2021/10/18 01:50:39;;;;;;;9.20;7.97;;;;;;;;;;2081203;28;20231;-60
2021/10/18 01:51:39;;;;;;;8.50;7.65;;;;;;;;;;2089099;28;20164;-66
2021/10/18 01:52:42;;;;;;;9.23;8.32;;;;;;;;;;2090281;28;20648;-60
2021/10/18 01:53:42;;;;;;;7.82;7.22;;;;;;;;;;2090269;28;20171;-65
2021/10/18 01:54:43;;;;;;;8.85;8.00;;;;;;;;;;2098577;28;20163;-62
2021/10/18 01:55:43;;;;;;;8.45;7.65;;;;;;;;;;2103014;28;20193;-64
2021/10/18 01:56:43;;;;;;;8.30;7.47;;;;;;;;;;2094717;28;20179;-60
2021/10/18 01:57:44;;;;;;;9.95;8.48;;;;;;;;;;2092817;28;20172;-61
2021/10/18 01:58:44;;;;;;;8.63;7.82;;;;;;;;;;2079846;28;20310;-63
2021/10/18 01:59:44;;;;;;;8.85;7.97;;;;;;;;;;2081542;28;20183;-61
2021/10/18 02:00:44;;;;;;;8.85;7.88;;;;;;;;;;2077561;28;20263;-58
2021/10/18 02:01:45;;;;;;;11.38;8.30;;;;;;;;;;2086639;28;20176;-62
2021/10/18 02:02:46;;;;;;;8.23;7.43;;;;;;;;;;2094545;28;20172;-61
2021/10/18 02:03:46;;;;;;;8.73;7.93;;;;;;;;;;2098364;28;20183;-63
2021/10/18 02:04:46;;;;;;;7.85;7.13;;;;;;;;;;2086510;28;20275;-62
2021/10/18 02:05:47;;;;;;;9.05;7.65;;;;;;;;;;2098568;28;20177;-60
2021/10/18 02:06:47;;;;;;;9.70;8.02;;;;;;;;;;2078357;28;20181;-58
2021/10/18 02:07:47;;;;;;;10.57;8.13;;;;;;;;;;2090295;28;20664;-58
2021/10/18 02:08:47;;;;;;;8.05;7.28;;;;;;;;;;2088653;28;20215;-61
2021/10/18 02:09:48;;;;;;;8.55;7.18;;;;;;;;;;2090924;28;20276;-54
2021/10/18 02:10:48;;;;;;;8.43;7.72;;;;;;;;;;2087588;28;20707;-65
2021/10/18 02:11:48;;;;;;;9.00;8.10;;;;;;;;;;2090320;28;20235;-61
2021/10/18 02:12:49;;;;;;;8.60;7.72;;;;;;;;;;2089889;28;20271;-61
2021/10/18 02:13:49;;;;;;;9.02;7.93;;;;;;;;;;2089952;28;20163;-60
2021/10/18 02:14:49;;;;;;;9.07;7.95;;;;;;;;;;2083479;28;20187;-62
2021/10/18 02:15:50;;;;;;;9.57;8.30;;;;;;;;;;2090307;28;20250;-60
2021/10/18 02:16:50;;;;;;;9.63;7.43;;;;;;;;;;2089192;28;20262;-57
2021/10/18 02:17:50;;;;;;;10.43;9.10;;;;;;;;;;2096617;28;20179;-60
2021/10/18 02:18:50;;;;;;;8.68;7.88;;;;;;;;;;2090227;28;20278;-61
2021/10/18 02:19:53;;;;;;;10.15;7.57;;;;;;;;;;2095171;28;20264;-58
2021/10/18 02:20:59;;;;;;;8.52;7.47;;;;;;;;;;2081788;28;20188;-65
2021/10/18 02:21:59;;;;;;;11.13;7.97;;;;;;;;;;2086340;28;20161;-59
2021/10/18 02:22:59;;;;;;;14.50;8.70;;;;;;;;;;2091762;28;20636;-63
2021/10/18 02:23:59;;;;;;;9.23;8.43;;;;;;;;;;2087835;28;20281;-62
2021/10/18 02:25:00;;;;;;;8.85;7.97;;;;;;;;;;2081193;28;20695;-55
2021/10/18 02:26:00;;;;;;;10.20;8.35;;;;;;;;;;2089831;28;20167;-58
2021/10/18 02:27:00;;;;;;;9.38;8.40;;;;;;;;;;2081120;28;20172;-63
2021/10/18 02:28:01;;;;;;;8.60;7.72;;;;;;;;;;2081307;28;20610;-63
2021/10/18 02:29:01;;;;;;;9.38;8.48;;;;;;;;;;2092166;28;20203;-62
2021/10/18 02:30:04;;;;;;;10.88;8.82;;;;;;;;;;2093433;28;20266;-63
2021/10/18 02:31:04;;;;;;;8.98;8.07;;;;;;;;;;2094068;28;20322;-64
2021/10/18 02:32:04;;;;;;;9.50;8.48;;;;;;;;;;2088641;28;20619;-62
2021/10/18 02:33:05;;;;;;;9.65;8.68;;;;;;;;;;2083135;28;20194;-63
2021/10/18 02:34:05;;;;;;;9.65;8.73;;;;;;;;;;2096894;28;20163;-63
2021/10/18 02:35:07;;;;;;;9.00;8.20;;;;;;;;;;2089154;28;20180;-61
2021/10/18 02:36:08;;;;;;;10.00;9.00;;;;;;;;;;2096046;28;20607;-61
2021/10/18 02:37:08;;;;;;;9.52;8.63;;;;;;;;;;2080109;28;20218;-64
2021/10/18 02:38:08;;;;;;;10.20;9.18;;;;;;;;;;2087212;28;20176;-63
2021/10/18 02:39:09;;;;;;;11.60;8.18;;;;;;;;;;2082302;28;20176;-59
2021/10/18 02:40:10;;;;;;;11.27;9.15;;;;;;;;;;2082295;28;20234;-61
2021/10/18 02:41:10;;;;;;;11.77;9.65;;;;;;;;;;2090904;28;20186;-61
2021/10/18 02:42:10;;;;;;;9.75;8.82;;;;;;;;;;2083098;28;20215;-63
2021/10/18 02:43:10;;;;;;;9.55;8.75;;;;;;;;;;2091782;28;20165;-64
2021/10/18 02:44:11;;;;;;;9.93;9.00;;;;;;;;;;2095511;28;20225;-60
2021/10/18 02:45:11;;;;;;;11.20;9.45;;;;;;;;;;2081590;28;20246;-64
2021/10/18 02:46:11;;;;;;;11.43;9.82;;;;;;;;;;2081947;28;20212;-63
2021/10/18 02:47:11;;;;;;;11.82;9.57;;;;;;;;;;2086979;28;20637;-64
2021/10/18 02:48:12;;;;;;;10.90;9.82;;;;;;;;;;2086793;28;20186;-63
2021/10/18 02:49:12;;;;;;;10.05;9.05;;;;;;;;;;2094724;28;20173;-63
2021/10/18 02:50:13;;;;;;;11.10;10.05;;;;;;;;;;2096069;28;20167;-61
2021/10/18 02:51:13;;;;;;;10.75;9.85;;;;;;;;;;2092131;28;20179;-63
2021/10/18 02:52:13;;;;;;;10.35;9.40;;;;;;;;;;2095253;28;20168;-65
2021/10/18 02:53:14;;;;;;;10.55;9.50;;;;;;;;;;2093851;28;20198;-62
2021/10/18 02:54:14;;;;;;;10.48;9.23;;;;;;;;;;2094323;28;20167;-65
2021/10/18 02:55:15;;;;;;;12.02;10.43;;;;;;;;;;2086561;28;20255;-60
2021/10/18 02:56:16;;;;;;;10.93;9.68;;;;;;;;;;2086208;28;20184;-63
2021/10/18 02:57:16;;;;;;;10.50;9.50;;;;;;;;;;2095645;28;20175;-62
2021/10/18 02:58:16;;;;;;;13.15;9.18;;;;;;;;;;2095385;28;20188;-63
2021/10/18 02:59:17;;;;;;;10.82;9.77;;;;;;;;;;2095166;28;20186;-63
2021/10/18 03:00:17;;;;;;;12.13;10.85;;;;;;;;;;2092409;28;20207;-61
2021/10/18 03:01:17;;;;;;;11.25;10.13;;;;;;;;;;2096472;28;20179;-57
2021/10/18 03:02:18;;;;;;;11.38;10.20;;;;;;;;;;2090835;28;20179;-62
2021/10/18 03:03:18;;;;;;;11.02;10.07;;;;;;;;;;2081850;28;20210;-62
2021/10/18 03:04:18;;;;;;;10.60;9.63;;;;;;;;;;2086019;28;20265;-63
2021/10/18 03:05:18;;;;;;;10.15;8.82;;;;;;;;;;2094489;28;20210;-64
2021/10/18 03:06:18;;;;;;;11.57;10.23;;;;;;;;;;2085722;28;20195;-62
2021/10/18 03:07:19;;;;;;;10.55;9.55;;;;;;;;;;2084282;28;20172;-63
2021/10/18 03:08:19;;;;;;;12.05;10.75;;;;;;;;;;2094902;28;20220;-63
2021/10/18 03:09:19;;;;;;;10.20;9.20;;;;;;;;;;2094312;28;20180;-62
2021/10/18 03:10:20;;;;;;;11.57;10.43;;;;;;;;;;2094492;28;20159;-64
2021/10/18 03:11:20;;;;;;;9.90;8.90;;;;;;;;;;2095721;28;20192;-64
2021/10/18 03:12:20;;;;;;;10.55;9.65;;;;;;;;;;2086382;28;20176;-62
2021/10/18 03:13:21;;;;;;;11.77;10.00;;;;;;;;;;2084838;28;20196;-63
2021/10/18 03:14:21;;;;;;;11.50;10.40;;;;;;;;;;2090309;28;20178;-63
2021/10/18 03:15:21;;;;;;;12.48;9.65;;;;;;;;;;2090114;28;20179;-63
2021/10/18 03:16:21;;;;;;;11.20;10.20;;;;;;;;;;2088392;28;20183;-63
2021/10/18 03:17:22;;;;;;;11.13;10.02;;;;;;;;;;2086593;28;20175;-62
2021/10/18 03:18:22;;;;;;;10.93;9.93;;;;;;;;;;2088441;28;20645;-62
2021/10/18 03:19:22;;;;;;;12.32;10.38;;;;;;;;;;2088789;28;20183;-61
2021/10/18 03:20:22;;;;;;;11.65;10.35;;;;;;;;;;2083124;28;20227;-63
2021/10/18 03:21:23;;;;;;;12.13;10.45;;;;;;;;;;2081835;28;20637;-61
2021/10/18 03:22:23;;;;;;;11.70;10.52;;;;;;;;;;2086564;28;20176;-63
2021/10/18 03:23:23;;;;;;;11.73;10.63;;;;;;;;;;2087405;28;20183;-65
2021/10/18 03:24:23;;;;;;;13.20;10.70;;;;;;;;;;2090465;28;20254;-63
2021/10/18 03:25:24;;;;;;;11.32;10.23;;;;;;;;;;2089895;28;20230;-62
2021/10/18 03:26:24;;;;;;;11.90;10.80;;;;;;;;;;2094580;28;20631;-61
2021/10/18 03:27:24;;;;;;;12.25;10.98;;;;;;;;;;2082708;28;20192;-62
2021/10/18 03:28:24;;;;;;;13.80;12.40;;;;;;;;;;2081415;28;20208;-64
2021/10/18 03:29:25;;;;;;;11.35;10.10;;;;;;;;;;2092153;28;20163;-63
2021/10/18 03:30:25;;;;;;;13.20;11.88;;;;;;;;;;2096684;28;20197;-62
2021/10/18 03:31:25;;;;;;;13.05;11.68;;;;;;;;;;2094772;28;20266;-61
2021/10/18 03:32:25;;;;;;;13.85;11.50;;;;;;;;;;2089619;28;20184;-61
2021/10/18 03:33:33;;;;;;;13.68;12.00;;;;;;;;;;2089676;28;20540;-62
2021/10/18 03:34:34;;;;;;;12.43;10.65;;;;;;;;;;2095535;28;20179;-60
2021/10/18 03:35:34;;;;;;;12.77;11.48;;;;;;;;;;2086471;28;20208;-60
2021/10/18 03:36:34;;;;;;;13.13;10.95;;;;;;;;;;2094117;28;20293;-59
2021/10/18 03:37:34;;;;;;;11.95;10.98;;;;;;;;;;2072695;28;20173;-60
2021/10/18 03:38:35;;;;;;;13.38;12.02;;;;;;;;;;2078507;28;20629;-58
2021/10/18 03:39:35;;;;;;;16.75;12.07;;;;;;;;;;2090991;28;20556;-60
2021/10/18 03:40:36;;;;;;;12.02;10.85;;;;;;;;;;2094337;28;20203;-57
2021/10/18 03:41:37;;;;;;;12.93;11.73;;;;;;;;;;2094827;28;20591;-60
2021/10/18 03:42:39;;;;;;;14.23;11.68;;;;;;;;;;2086350;28;20271;-59
2021/10/18 03:43:39;;;;;;;14.23;12.75;;;;;;;;;;2088223;28;20175;-58
2021/10/18 03:44:39;;;;;;;13.95;11.95;;;;;;;;;;2089178;28;20175;-58
2021/10/18 03:45:40;;;;;;;12.20;10.82;;;;;;;;;;2081906;28;20219;-61
2021/10/18 03:46:40;;;;;;;14.05;12.18;;;;;;;;;;2092915;28;20232;-58
2021/10/18 03:47:42;;;;;;;13.57;12.32;;;;;;;;;;2097549;28;20175;-61
2021/10/18 03:48:42;;;;;;;16.55;12.38;;;;;;;;;;2087548;28;20719;-58
2021/10/18 03:49:42;;;;;;;13.32;11.93;;;;;;;;;;2097646;28;20206;-61
2021/10/18 03:50:42;;;;;;;14.27;11.85;;;;;;;;;;2086441;28;20633;-58
2021/10/18 03:51:43;;;;;;;11.85;10.75;;;;;;;;;;2087723;28;20565;-62
2021/10/18 03:52:43;;;;;;;15.13;11.88;;;;;;;;;;2084284;28;20184;-62
2021/10/18 03:53:43;;;;;;;13.70;12.35;;;;;;;;;;2085865;28;20172;-59
2021/10/18 03:54:43;;;;;;;12.57;11.23;;;;;;;;;;2081595;28;20235;-61
2021/10/18 03:55:44;;;;;;;12.48;10.35;;;;;;;;;;2096825;28;20174;-61
2021/10/18 03:56:44;;;;;;;13.02;11.55;;;;;;;;;;2089290;28;20689;-59
2021/10/18 03:57:44;;;;;;;13.77;12.23;;;;;;;;;;2097732;28;20186;-59
2021/10/18 03:58:44;;;;;;;13.00;11.63;;;;;;;;;;2084382;28;20196;-61
2021/10/18 03:59:44;;;;;;;12.20;10.38;;;;;;;;;;2097250;28;20565;-60
2021/10/18 04:00:45;;;;;;;12.23;11.02;;;;;;;;;;2090616;28;20239;-60
2021/10/18 04:01:45;;;;;;;11.68;10.20;;;;;;;;;;2100926;28;20163;-59
2021/10/18 04:02:45;;;;;;;12.32;11.13;;;;;;;;;;2089113;28;20179;-62
2021/10/18 04:03:47;;;;;;;12.88;10.80;;;;;;;;;;2098250;28;20186;-59
2021/10/18 04:04:47;;;;;;;11.82;10.73;;;;;;;;;;2088390;28;20203;-59
2021/10/18 04:05:47;;;;;;;11.23;10.13;;;;;;;;;;2097797;28;20175;-60
2021/10/18 04:06:47;;;;;;;11.82;9.90;;;;;;;;;;2074278;28;20211;-62
2021/10/18 04:07:49;;;;;;;11.20;10.25;;;;;;;;;;2078593;28;20532;-58
2021/10/18 04:08:51;;;;;;;12.60;11.40;;;;;;;;;;2080858;28;20211;-58
2021/10/18 04:09:51;;;;;;;11.68;10.45;;;;;;;;;;2089863;28;20213;-58
2021/10/18 04:10:51;;;;;;;13.60;11.68;;;;;;;;;;2088248;28;20589;-58
2021/10/18 04:11:51;;;;;;;12.02;10.80;;;;;;;;;;2080123;28;20176;-58
2021/10/18 04:12:52;;;;;;;12.68;10.75;;;;;;;;;;2092223;28;20199;-56
2021/10/18 04:13:52;;;;;;;12.55;11.27;;;;;;;;;;2086086;28;20176;-58
2021/10/18 04:14:53;;;;;;;13.70;10.60;;;;;;;;;;2081529;28;20251;-60
2021/10/18 04:15:53;;;;;;;11.38;10.10;;;;;;;;;;2085998;28;20623;-57
2021/10/18 04:16:53;;;;;;;12.52;10.45;;;;;;;;;;2091681;28;20256;-61
2021/10/18 04:17:53;;;;;;;11.38;10.18;;;;;;;;;;2095305;28;20183;-60
2021/10/18 04:18:54;;;;;;;15.55;10.57;;;;;;;;;;2090877;28;20196;-58
2021/10/18 04:19:54;;;;;;;11.85;10.80;;;;;;;;;;2087655;28;20172;-62
2021/10/18 04:20:55;;;;;;;12.55;10.55;;;;;;;;;;2079449;28;20265;-60
2021/10/18 04:21:55;;;;;;;13.35;10.13;;;;;;;;;;2079528;28;20259;-60
2021/10/18 04:22:55;;;;;;;12.00;10.80;;;;;;;;;;2088659;28;20174;-57
2021/10/18 04:23:57;;;;;;;11.68;10.48;;;;;;;;;;2085642;28;20377;-62
2021/10/18 04:24:57;;;;;;;11.85;10.63;;;;;;;;;;2077833;28;20175;-61
2021/10/18 04:25:57;;;;;;;12.45;10.88;;;;;;;;;;2079859;28;20172;-63
2021/10/18 04:26:59;;;;;;;11.48;9.98;;;;;;;;;;2087857;28;20229;-58
2021/10/18 04:28:00;;;;;;;11.77;10.02;;;;;;;;;;2086455;28;20174;-56
2021/10/18 04:29:00;;;;;;;12.07;10.98;;;;;;;;;;2084800;28;20612;-57
2021/10/18 04:30:00;;;;;;;12.88;11.57;;;;;;;;;;2086559;28;20211;-58
2021/10/18 04:31:00;;;;;;;12.75;10.90;;;;;;;;;;2081557;28;20255;-60
2021/10/18 04:32:01;;;;;;;11.88;10.48;;;;;;;;;;2095233;28;20174;-61
2021/10/18 04:33:01;;;;;;;14.57;11.13;;;;;;;;;;2090120;28;20589;-57
2021/10/18 04:34:01;;;;;;;13.00;11.57;;;;;;;;;;2095475;28;20691;-60
2021/10/18 04:35:02;;;;;;;13.10;11.65;;;;;;;;;;2084011;28;20727;-61
2021/10/18 04:36:03;;;;;;;12.38;11.05;;;;;;;;;;2086284;28;20205;-61
2021/10/18 04:37:03;;;;;;;12.85;11.52;;;;;;;;;;2087613;28;20301;-56
2021/10/18 04:38:03;;;;;;;13.25;11.85;;;;;;;;;;2086145;28;20889;-61
2021/10/18 04:39:06;;;;;;;12.82;11.07;;;;;;;;;;2077650;28;20661;-62
2021/10/18 04:40:07;;;;;;;14.40;12.50;;;;;;;;;;2077931;28;20208;-59
2021/10/18 04:41:07;;;;;;;15.30;13.00;;;;;;;;;;2080583;28;20282;-57
2021/10/18 04:42:07;;;;;;;14.48;11.88;;;;;;;;;;2088594;28;20191;-56
2021/10/18 04:43:07;;;;;;;12.25;11.07;;;;;;;;;;2089689;28;20237;-61
2021/10/18 04:44:08;;;;;;;13.00;11.70;;;;;;;;;;2083219;28;20167;-68
2021/10/18 04:45:10;;;;;;;14.20;11.23;;;;;;;;;;2089171;28;20208;-68
2021/10/18 04:46:11;;;;;;;12.98;11.55;;;;;;;;;;2095462;28;20254;-68
2021/10/18 04:47:11;;;;;;;12.48;11.30;;;;;;;;;;2088377;28;20179;-68
2021/10/18 04:48:13;;;;;;;13.32;12.02;;;;;;;;;;2095038;28;20195;-69
2021/10/18 04:49:13;;;;;;;13.65;12.35;;;;;;;;;;2095408;28;20168;-68
2021/10/18 04:50:15;;;;;;;13.55;11.02;;;;;;;;;;2094559;28;20294;-69
2021/10/18 04:51:15;;;;;;;13.43;12.13;;;;;;;;;;2091332;28;20159;-67
2021/10/18 04:52:15;;;;;;;12.65;11.45;;;;;;;;;;2070678;28;20523;-68
2021/10/18 04:53:15;;;;;;;13.27;11.93;;;;;;;;;;2064798;28;20185;-68
2021/10/18 04:54:15;;;;;;;13.10;11.80;;;;;;;;;;2072878;28;20161;-66
2021/10/18 04:55:16;;;;;;;13.43;12.05;;;;;;;;;;2072792;28;20192;-67
2021/10/18 04:56:16;;;;;;;13.18;11.90;;;;;;;;;;2081557;28;20562;-67
2021/10/18 04:57:16;;;;;;;13.00;11.73;;;;;;;;;;2081434;28;20188;-67
2021/10/18 04:58:17;;;;;;;13.27;11.73;;;;;;;;;;2081531;28;20183;-68
2021/10/18 04:59:17;;;;;;;14.90;11.85;;;;;;;;;;2081374;28;20164;-67
2021/10/18 05:00:17;;;;;;;15.35;12.38;;;;;;;;;;2081328;28;20247;-66
2021/10/18 05:01:17;;;;;;;14.35;11.77;;;;;;;;;;2081607;28;20179;-67
2021/10/18 05:02:18;;;;;;;11.98;10.77;;;;;;;;;;2081566;28;20176;-65
2021/10/18 05:03:18;;;;;;;13.98;12.68;;;;;;;;;;2081589;28;20165;-68
2021/10/18 05:04:18;;;;;;;14.52;11.80;;;;;;;;;;2082803;28;20168;-66
2021/10/18 05:05:19;;;;;;;14.10;12.77;;;;;;;;;;2080560;28;20306;-66
2021/10/18 05:06:19;;;;;;;15.80;12.45;;;;;;;;;;2072751;28;20171;-67
2021/10/18 05:07:19;;;;;;;12.98;11.43;;;;;;;;;;2082647;28;20171;-66
2021/10/18 05:08:20;;;;;;;12.68;11.43;;;;;;;;;;2089709;28;20741;-68
2021/10/18 05:09:20;;;;;;;13.57;11.77;;;;;;;;;;2085524;28;20647;-67
2021/10/18 05:10:20;;;;;;;13.38;11.98;;;;;;;;;;2092772;28;20662;-68
2021/10/18 05:11:20;;;;;;;12.18;11.15;;;;;;;;;;2088654;28;20174;-67
2021/10/18 05:12:21;;;;;;;16.60;11.40;;;;;;;;;;2088812;28;20298;-68
2021/10/18 05:13:21;;;;;;;12.27;11.02;;;;;;;;;;2089792;28;20189;-67
2021/10/18 05:14:21;;;;;;;14.27;11.85;;;;;;;;;;2092056;28;20160;-67
2021/10/18 05:15:22;;;;;;;13.20;11.80;;;;;;;;;;2084647;28;20258;-67
2021/10/18 05:16:22;;;;;;;12.15;10.98;;;;;;;;;;2084064;28;20176;-67
2021/10/18 05:17:22;;;;;;;11.75;10.50;;;;;;;;;;2092054;28;20221;-67
2021/10/18 05:18:22;;;;;;;11.40;10.27;;;;;;;;;;2092469;28;20573;-71
2021/10/18 05:19:23;;;;;;;11.48;10.38;;;;;;;;;;2095475;28;20170;-67
2021/10/18 05:20:23;;;;;;;11.45;10.30;;;;;;;;;;2088358;28;20194;-69
2021/10/18 05:21:23;;;;;;;12.27;9.50;;;;;;;;;;2092759;28;20214;-66
2021/10/18 05:22:23;;;;;;;10.75;9.63;;;;;;;;;;2087797;28;20342;-69
2021/10/18 05:23:24;;;;;;;10.75;9.55;;;;;;;;;;2084224;28;20250;-67
2021/10/18 05:24:24;;;;;;;12.05;10.77;;;;;;;;;;2077622;28;20189;-68
2021/10/18 05:25:24;;;;;;;10.13;9.13;;;;;;;;;;2084359;28;20274;-68
2021/10/18 05:26:25;;;;;;;10.75;9.75;;;;;;;;;;2092389;28;20167;-68
2021/10/18 05:27:26;;;;;;;10.80;9.77;;;;;;;;;;2084856;28;20180;-68
2021/10/18 05:28:26;;;;;;;11.55;10.35;;;;;;;;;;2083154;28;20188;-69
2021/10/18 05:29:26;;;;;;;11.27;10.18;;;;;;;;;;2087957;28;20176;-69
2021/10/18 05:30:27;;;;;;;10.18;9.18;;;;;;;;;;2084178;28;20550;-70
2021/10/18 05:31:27;;;;;;;10.77;9.80;;;;;;;;;;2082526;28;20255;-69
2021/10/18 05:32:27;;;;;;;10.95;9.55;;;;;;;;;;2092880;28;20186;-69
2021/10/18 05:33:28;;;;;;;11.75;9.95;;;;;;;;;;2087092;28;20179;-68
2021/10/18 05:34:28;;;;;;;10.88;9.38;;;;;;;;;;2087705;28;20199;-69
2021/10/18 05:35:28;;;;;;;10.60;9.52;;;;;;;;;;2089765;28;20718;-69
2021/10/18 05:36:29;;;;;;;12.05;9.73;;;;;;;;;;2090125;28;20201;-67
2021/10/18 05:37:29;;;;;;;10.80;9.27;;;;;;;;;;2095734;28;20594;-68
2021/10/18 05:38:29;;;;;;;12.05;10.35;;;;;;;;;;2093086;28;20226;-68
2021/10/18 05:39:29;;;;;;;10.68;9.65;;;;;;;;;;2085020;28;20190;-70
2021/10/18 05:40:29;;;;;;;14.48;10.20;;;;;;;;;;2082012;28;20215;-69
2021/10/18 05:41:30;;;;;;;11.30;10.05;;;;;;;;;;2090323;28;20532;-69
2021/10/18 05:42:30;;;;;;;12.07;9.73;;;;;;;;;;2091116;28;20647;-67
2021/10/18 05:43:30;;;;;;;12.82;9.10;;;;;;;;;;2085656;28;20188;-69
2021/10/18 05:44:30;;;;;;;10.60;9.43;;;;;;;;;;2083025;28;20175;-68
2021/10/18 05:45:33;;;;;;;11.32;10.07;;;;;;;;;;2087220;28;20219;-69
2021/10/18 05:46:33;;;;;;;10.20;9.20;;;;;;;;;;2083236;28;20175;-69
2021/10/18 05:47:34;;;;;;;12.32;9.77;;;;;;;;;;2095815;28;20175;-69
2021/10/18 05:48:36;;;;;;;10.77;9.75;;;;;;;;;;2090457;28;20199;-69
2021/10/18 05:49:36;;;;;;;11.98;9.88;;;;;;;;;;2087583;28;20207;-69
2021/10/18 05:50:39;;;;;;;11.88;10.15;;;;;;;;;;2083052;28;20712;-68
2021/10/18 05:51:40;;;;;;;11.65;10.45;;;;;;;;;;2098380;28;20179;-67
2021/10/18 05:52:40;;;;;;;15.25;11.50;;;;;;;;;;2091845;28;20176;-68
2021/10/18 05:53:40;;;;;;;15.38;11.45;;;;;;;;;;2082036;28;20222;-69
2021/10/18 05:54:41;;;;;;;11.82;10.48;;;;;;;;;;2081783;28;20188;-67
2021/10/18 05:55:41;;;;;;;11.10;9.95;;;;;;;;;;2089468;28;20174;-67